createdAt,value
2023-05-14T00:01:39.766Z,11.09
2023-05-14T00:04:24.793Z,11.06
2023-05-14T00:07:09.592Z,10.94
2023-05-14T00:09:54.549Z,10.81
2023-05-14T00:12:39.296Z,10.86
2023-05-14T00:15:24.079Z,10.78
2023-05-14T00:18:09.310Z,10.79
2023-05-14T00:20:54.238Z,10.75
2023-05-14T00:23:39.289Z,10.73
2023-05-14T00:26:24.083Z,10.64
2023-05-14T00:29:09.156Z,10.59
2023-05-14T00:31:54.055Z,10.65
2023-05-14T00:34:38.952Z,10.64
2023-05-14T00:37:23.979Z,10.70
2023-05-14T00:40:08.997Z,10.70
2023-05-14T00:42:54.207Z,10.68
2023-05-14T00:45:39.124Z,10.63
2023-05-14T00:48:24.180Z,10.71
2023-05-14T00:51:09.302Z,10.71
2023-05-14T00:53:54.236Z,10.76
2023-05-14T00:56:39.164Z,10.73
2023-05-14T00:59:24.201Z,10.73
2023-05-14T01:02:09.199Z,10.78
2023-05-14T01:04:53.988Z,10.77
2023-05-14T01:07:39.029Z,10.62
2023-05-14T01:10:24.323Z,10.59
2023-05-14T01:13:09.531Z,10.63
2023-05-14T01:15:54.392Z,10.67
2023-05-14T01:18:39.399Z,10.60
2023-05-14T01:21:24.458Z,10.51
2023-05-14T01:24:09.345Z,10.51
2023-05-14T01:26:54.165Z,10.52
2023-05-14T01:29:39.078Z,10.45
2023-05-14T01:32:24.064Z,10.44
2023-05-14T01:35:08.873Z,10.40
2023-05-14T01:37:53.819Z,10.43
2023-05-14T01:40:38.482Z,10.33
2023-05-14T01:43:23.500Z,10.29
2023-05-14T01:46:08.688Z,10.31
2023-05-14T01:48:53.631Z,10.30
2023-05-14T01:51:38.539Z,10.36
2023-05-14T01:54:23.474Z,10.38
2023-05-14T01:57:08.490Z,10.42
2023-05-14T01:59:53.467Z,10.43
2023-05-14T02:02:38.600Z,10.39
2023-05-14T02:05:23.560Z,10.34
2023-05-14T02:08:08.473Z,10.38
2023-05-14T02:10:53.512Z,10.34
2023-05-14T02:13:38.261Z,10.37
2023-05-14T02:16:23.274Z,10.42
2023-05-14T02:19:08.213Z,10.44
2023-05-14T02:21:53.072Z,10.49
2023-05-14T02:24:38.176Z,10.48
2023-05-14T02:27:23.131Z,10.53
2023-05-14T02:30:08.082Z,10.54
2023-05-14T02:32:53.164Z,10.49
2023-05-14T02:35:37.960Z,10.42
2023-05-14T02:38:22.945Z,10.37
2023-05-14T02:41:07.936Z,10.30
2023-05-14T02:43:53.061Z,10.34
2023-05-14T02:46:38.121Z,10.42
2023-05-14T02:49:22.757Z,10.45
2023-05-14T02:52:07.751Z,10.43
2023-05-14T02:54:52.739Z,10.46
2023-05-14T02:57:37.702Z,10.45
2023-05-14T03:00:24.992Z,10.48
2023-05-14T03:03:10.252Z,10.49
2023-05-14T03:05:55.958Z,10.59
2023-05-14T03:08:40.828Z,10.62
2023-05-14T03:11:25.860Z,10.61
2023-05-14T03:14:10.990Z,10.44
2023-05-14T03:16:55.930Z,10.31
2023-05-14T03:19:40.744Z,10.11
2023-05-14T03:22:25.743Z,10.03
2023-05-14T03:25:10.604Z,10.04
2023-05-14T03:27:55.618Z,10.12
2023-05-14T03:30:40.646Z,10.12
2023-05-14T03:33:25.719Z,10.07
2023-05-14T03:36:10.682Z,10.11
2023-05-14T03:38:55.733Z,10.13
2023-05-14T03:41:40.766Z,10.14
2023-05-14T03:44:25.782Z,10.15
2023-05-14T03:47:10.554Z,10.28
2023-05-14T03:49:55.555Z,10.30
2023-05-14T03:52:40.558Z,10.41
2023-05-14T03:55:25.633Z,10.37
2023-05-14T03:58:10.661Z,10.34
2023-05-14T04:00:55.521Z,10.27
2023-05-14T04:03:40.687Z,10.26
2023-05-14T04:06:25.496Z,10.28
2023-05-14T04:09:10.456Z,10.29
2023-05-14T04:11:55.325Z,10.35
2023-05-14T04:14:40.320Z,10.36
2023-05-14T04:17:25.180Z,10.29
2023-05-14T04:20:10.013Z,10.31
2023-05-14T04:22:54.947Z,10.27
2023-05-14T04:25:39.895Z,10.29
2023-05-14T04:28:24.931Z,10.24
2023-05-14T04:31:11.103Z,10.21
2023-05-14T04:33:56.235Z,10.10
2023-05-14T04:36:41.258Z,10.10
2023-05-14T04:39:26.261Z,10.21
2023-05-14T04:42:11.411Z,10.26
2023-05-14T04:44:56.412Z,10.26
2023-05-14T04:47:41.361Z,10.22
2023-05-14T04:50:26.468Z,10.12
2023-05-14T04:53:11.305Z,10.08
2023-05-14T04:55:56.162Z,10.09
2023-05-14T04:58:41.164Z,10.08
2023-05-14T05:01:26.341Z,10.14
2023-05-14T05:04:11.318Z,10.13
2023-05-14T05:06:56.427Z,10.18
2023-05-14T05:09:41.044Z,10.17
2023-05-14T05:12:26.090Z,10.18
2023-05-14T05:15:11.102Z,10.11
2023-05-14T05:17:56.454Z,10.06
2023-05-14T05:20:41.392Z,9.99
2023-05-14T05:23:26.374Z,10.03
2023-05-14T05:26:11.371Z,10.09
2023-05-14T05:28:56.437Z,10.06
2023-05-14T05:31:41.630Z,10.15
2023-05-14T05:34:26.539Z,10.23
2023-05-14T05:37:11.544Z,10.30
2023-05-14T05:39:56.492Z,10.32
2023-05-14T05:42:41.480Z,10.35
2023-05-14T05:45:27.456Z,10.22
2023-05-14T05:48:12.350Z,9.96
2023-05-14T05:50:57.596Z,9.99
2023-05-14T05:53:42.362Z,10.12
2023-05-14T05:56:27.504Z,10.20
2023-05-14T05:59:12.338Z,10.20
2023-05-14T06:01:57.377Z,10.13
2023-05-14T06:04:42.374Z,10.11
2023-05-14T06:07:27.250Z,10.09
2023-05-14T06:10:12.316Z,10.21
2023-05-14T06:12:57.339Z,10.11
2023-05-14T06:15:42.407Z,10.17
2023-05-14T06:18:27.337Z,10.11
2023-05-14T06:21:12.226Z,10.17
2023-05-14T06:23:57.179Z,10.20
2023-05-14T06:26:42.179Z,10.11
2023-05-14T06:29:29.417Z,9.98
2023-05-14T06:32:14.185Z,10.05
2023-05-14T06:34:59.038Z,9.83
2023-05-14T06:37:43.905Z,9.94
2023-05-14T06:40:30.336Z,9.81
2023-05-14T06:43:15.350Z,9.84
2023-05-14T06:46:00.325Z,9.91
2023-05-14T06:48:51.180Z,9.81
2023-05-14T06:51:36.419Z,9.88
2023-05-14T06:54:21.438Z,9.68
2023-05-14T06:57:06.292Z,9.81
2023-05-14T06:59:51.174Z,9.73
2023-05-14T07:02:36.267Z,10.02
2023-05-14T07:05:22.645Z,10.08
2023-05-14T07:08:07.965Z,10.12
2023-05-14T07:10:53.071Z,10.17
2023-05-14T07:13:38.056Z,10.11
2023-05-14T07:16:23.138Z,10.23
2023-05-14T07:19:08.092Z,10.23
2023-05-14T07:21:52.908Z,10.07
2023-05-14T07:24:37.661Z,10.11
2023-05-14T07:27:22.642Z,10.13
2023-05-14T07:30:07.616Z,10.19
2023-05-14T07:32:52.442Z,10.22
2023-05-14T07:35:37.463Z,10.26
2023-05-14T07:38:22.306Z,10.23
2023-05-14T07:41:07.190Z,10.07
2023-05-14T07:43:52.111Z,10.12
2023-05-14T07:46:36.919Z,10.27
2023-05-14T07:49:21.762Z,10.39
2023-05-14T07:52:06.636Z,10.51
2023-05-14T07:54:51.566Z,10.35
2023-05-14T07:57:36.967Z,10.36
2023-05-14T08:00:22.345Z,10.63
2023-05-14T08:03:07.691Z,10.51
2023-05-14T08:05:52.670Z,10.53
2023-05-14T08:08:37.679Z,10.47
2023-05-14T08:11:22.541Z,10.60
2023-05-14T08:14:07.706Z,10.57
2023-05-14T08:16:52.549Z,10.53
2023-05-14T08:19:37.582Z,10.83
2023-05-14T08:22:22.309Z,10.95
2023-05-14T08:25:07.438Z,10.92
2023-05-14T08:27:55.540Z,10.73
2023-05-14T08:30:55.058Z,10.75
2023-05-14T08:33:40.871Z,10.82
2023-05-14T08:36:26.020Z,10.74
2023-05-14T08:39:12.020Z,10.75
2023-05-14T08:42:12.784Z,10.92
2023-05-14T08:45:01.984Z,11.10
2023-05-14T08:47:49.044Z,11.14
2023-05-14T08:50:34.105Z,11.29
2023-05-14T08:53:19.205Z,11.10
2023-05-14T08:56:04.349Z,11.22
2023-05-14T08:58:49.292Z,11.53
2023-05-14T09:01:34.230Z,11.72
2023-05-14T09:04:19.471Z,12.06
2023-05-14T09:07:04.241Z,12.01
2023-05-14T09:09:49.397Z,12.14
2023-05-14T09:12:34.257Z,12.24
2023-05-14T09:15:19.524Z,12.32
2023-05-14T09:18:04.625Z,12.43
2023-05-14T09:20:50.416Z,12.57
2023-05-14T09:23:35.580Z,12.33
2023-05-14T09:26:20.512Z,12.45
2023-05-14T09:29:05.512Z,12.55
2023-05-14T09:31:50.500Z,12.05
2023-05-14T09:34:35.408Z,12.28
2023-05-14T09:37:20.380Z,12.35
2023-05-14T09:40:05.488Z,12.47
2023-05-14T09:42:50.545Z,12.42
2023-05-14T09:45:35.409Z,12.18
2023-05-14T09:48:20.493Z,12.26
2023-05-14T09:51:05.368Z,12.37
2023-05-14T09:53:50.454Z,12.73
2023-05-14T09:56:35.440Z,12.93
2023-05-14T09:59:20.543Z,12.79
2023-05-14T10:02:05.486Z,13.01
2023-05-14T10:04:50.636Z,13.03
2023-05-14T10:07:35.442Z,13.23
2023-05-14T10:10:20.464Z,12.85
2023-05-14T10:13:05.462Z,13.18
2023-05-14T10:15:50.248Z,13.31
2023-05-14T10:18:35.318Z,13.52
2023-05-14T10:21:20.332Z,13.70
2023-05-14T10:24:05.328Z,13.69
2023-05-14T10:26:50.139Z,13.36
2023-05-14T10:29:35.202Z,13.70
2023-05-14T10:32:20.260Z,13.74
2023-05-14T10:35:05.141Z,13.80
2023-05-14T10:37:50.275Z,13.78
2023-05-14T10:40:35.095Z,13.63
2023-05-14T10:43:20.206Z,13.39
2023-05-14T10:46:05.163Z,13.88
2023-05-14T10:48:50.347Z,14.22
2023-05-14T10:51:35.491Z,14.07
2023-05-14T10:54:20.308Z,13.93
2023-05-14T10:57:05.242Z,14.19
2023-05-14T10:59:50.084Z,14.54
2023-05-14T11:02:35.110Z,14.63
2023-05-14T11:05:20.115Z,14.40
2023-05-14T11:08:05.166Z,14.30
2023-05-14T11:10:50.088Z,14.65
2023-05-14T11:13:35.217Z,14.77
2023-05-14T11:16:23.277Z,14.44
2023-05-14T11:19:09.128Z,14.17
2023-05-14T11:21:54.103Z,14.84
2023-05-14T11:24:38.958Z,14.37
2023-05-14T11:27:23.970Z,14.27
2023-05-14T11:30:08.886Z,14.84
2023-05-14T11:32:53.960Z,14.94
2023-05-14T11:35:38.890Z,14.94
2023-05-14T11:38:23.747Z,14.91
2023-05-14T11:41:08.788Z,15.21
2023-05-14T11:43:53.658Z,15.23
2023-05-14T11:46:38.731Z,14.94
2023-05-14T11:49:23.455Z,15.28
2023-05-14T11:52:08.639Z,15.38
2023-05-14T11:54:53.842Z,15.40
2023-05-14T11:57:38.815Z,15.11
2023-05-14T12:00:24.069Z,15.17
2023-05-14T12:03:09.329Z,15.31
2023-05-14T12:05:54.247Z,15.01
2023-05-14T12:08:39.138Z,15.49
2023-05-14T12:11:24.024Z,15.43
2023-05-14T12:14:09.048Z,15.60
2023-05-14T12:16:53.979Z,16.01
2023-05-14T12:19:39.096Z,16.22
2023-05-14T12:22:24.025Z,16.38
2023-05-14T12:25:09.028Z,16.42
2023-05-14T12:27:53.839Z,16.35
2023-05-14T12:30:38.887Z,16.28
2023-05-14T12:33:23.796Z,16.31
2023-05-14T12:38:56.311Z,16.07
2023-05-14T12:41:41.285Z,15.59
2023-05-14T12:44:26.315Z,15.45
2023-05-14T12:47:11.276Z,15.69
2023-05-14T12:49:56.279Z,15.63
2023-05-14T12:52:41.317Z,15.77
2023-05-14T12:55:27.350Z,15.66
2023-05-14T12:58:12.385Z,15.76
2023-05-14T13:00:57.389Z,15.88
2023-05-14T13:03:42.245Z,15.69
2023-05-14T13:06:26.996Z,15.68
2023-05-14T13:09:11.966Z,16.19
2023-05-14T13:11:56.922Z,16.04
2023-05-14T13:14:41.941Z,16.01
2023-05-14T13:17:27.049Z,16.33
2023-05-14T13:20:12.097Z,16.16
2023-05-14T13:22:57.100Z,16.05
2023-05-14T13:25:42.070Z,15.94
2023-05-14T13:28:27.034Z,16.25
2023-05-14T13:31:11.868Z,16.15
2023-05-14T13:33:56.666Z,16.03
2023-05-14T13:36:41.785Z,16.31
2023-05-14T13:39:26.791Z,16.59
2023-05-14T13:42:11.920Z,16.25
2023-05-14T13:44:56.726Z,16.45
2023-05-14T13:47:41.740Z,16.83
2023-05-14T13:50:26.600Z,16.55
2023-05-14T13:53:11.612Z,16.90
2023-05-14T13:55:56.665Z,16.85
2023-05-14T13:58:41.532Z,16.70
2023-05-14T14:01:26.740Z,16.80
2023-05-14T14:04:11.543Z,16.95
2023-05-14T14:06:56.574Z,16.97
2023-05-14T14:09:41.449Z,16.54
2023-05-14T14:12:26.542Z,16.86
2023-05-14T14:15:11.392Z,16.49
2023-05-14T14:17:56.510Z,16.44
2023-05-14T14:20:41.464Z,15.89
2023-05-14T14:23:26.420Z,15.98
2023-05-14T14:26:11.456Z,15.79
2023-05-14T14:28:56.421Z,15.71
2023-05-14T14:31:41.413Z,15.70
2023-05-14T14:34:26.158Z,15.76
2023-05-14T14:37:11.225Z,15.77
2023-05-14T14:39:56.057Z,15.49
2023-05-14T14:42:41.172Z,15.41
2023-05-14T14:45:26.070Z,15.38
2023-05-14T14:48:11.009Z,15.25
2023-05-14T14:50:55.934Z,15.18
2023-05-14T14:53:40.823Z,15.07
2023-05-14T14:56:25.814Z,15.07
2023-05-14T14:59:10.809Z,15.26
2023-05-14T15:01:55.780Z,15.29
2023-05-14T15:04:40.854Z,15.01
2023-05-14T15:07:25.865Z,15.14
2023-05-14T15:10:10.999Z,15.59
2023-05-14T15:12:55.904Z,15.59
2023-05-14T15:15:40.986Z,15.53
2023-05-14T15:18:26.032Z,15.70
2023-05-14T15:21:10.915Z,15.67
2023-05-14T15:23:55.547Z,15.62
2023-05-14T15:26:40.262Z,15.70
2023-05-14T15:29:25.308Z,15.74
2023-05-14T15:32:10.305Z,15.74
2023-05-14T15:34:55.093Z,15.41
2023-05-14T15:37:39.758Z,15.68
2023-05-14T15:40:24.740Z,15.30
2023-05-14T15:43:09.884Z,15.66
2023-05-14T15:45:54.891Z,15.60
2023-05-14T15:48:39.720Z,15.70
2023-05-14T15:51:26.460Z,15.66
2023-05-14T15:54:11.559Z,15.56
2023-05-14T15:56:56.572Z,15.49
2023-05-14T15:59:41.363Z,15.38
2023-05-14T16:02:26.161Z,15.16
2023-05-14T16:05:11.187Z,15.28
2023-05-14T16:07:55.819Z,15.32
2023-05-14T16:10:40.974Z,15.34
2023-05-14T16:13:26.124Z,15.57
2023-05-14T16:16:11.156Z,15.70
2023-05-14T16:18:56.187Z,15.34
2023-05-14T16:21:41.002Z,15.45
2023-05-14T16:24:26.113Z,15.51
2023-05-14T16:27:10.978Z,15.56
2023-05-14T16:29:56.938Z,15.56
2023-05-14T16:32:42.114Z,15.38
2023-05-14T16:35:27.153Z,15.26
2023-05-14T16:38:12.334Z,15.11
2023-05-14T16:40:56.990Z,15.18
2023-05-14T16:43:41.610Z,15.35
2023-05-14T16:46:26.427Z,15.37
2023-05-14T16:49:11.558Z,15.29
2023-05-14T16:51:56.304Z,15.10
2023-05-14T16:54:41.073Z,15.11
2023-05-14T16:57:25.707Z,15.00
2023-05-14T17:00:10.739Z,15.12
2023-05-14T17:02:55.493Z,14.88
2023-05-14T17:05:40.439Z,14.91
2023-05-14T17:08:25.435Z,14.95
2023-05-14T17:11:12.427Z,14.83
2023-05-14T17:13:57.685Z,14.86
2023-05-14T17:16:42.710Z,14.52
2023-05-14T17:19:27.704Z,14.35
2023-05-14T17:22:12.587Z,14.13
2023-05-14T17:24:57.454Z,13.93
2023-05-14T17:27:44.366Z,14.13
2023-05-14T17:30:29.186Z,14.13
2023-05-14T17:33:14.294Z,14.03
2023-05-14T17:35:59.303Z,14.06
2023-05-14T17:38:44.271Z,14.11
2023-05-14T17:41:29.410Z,14.05
2023-05-14T17:44:14.242Z,14.11
2023-05-14T17:46:59.381Z,14.09
2023-05-14T17:49:44.166Z,14.02
2023-05-14T17:52:29.179Z,14.08
2023-05-14T17:55:13.726Z,14.10
2023-05-14T17:57:58.735Z,14.19
2023-05-14T18:00:45.708Z,14.13
2023-05-14T18:03:30.988Z,14.11
2023-05-14T18:06:15.864Z,14.12
2023-05-14T18:09:00.998Z,14.15
2023-05-14T18:11:46.040Z,14.13
2023-05-14T18:14:33.828Z,14.12
2023-05-14T18:17:18.737Z,14.04
2023-05-14T18:20:03.649Z,14.02
2023-05-14T18:22:48.558Z,14.03
2023-05-14T18:25:33.308Z,14.02
2023-05-14T18:28:18.379Z,14.03
2023-05-14T18:31:03.087Z,14.03
2023-05-14T18:33:50.979Z,14.00
2023-05-14T18:36:35.884Z,14.01
2023-05-14T18:39:21.550Z,13.82
2023-05-14T18:42:06.443Z,13.78
2023-05-14T18:44:51.636Z,13.75
2023-05-14T18:47:36.959Z,13.72
2023-05-14T18:50:23.673Z,13.66
2023-05-14T18:53:08.530Z,13.64
2023-05-14T18:55:54.246Z,13.65
2023-05-14T18:58:39.349Z,13.62
2023-05-14T19:01:24.356Z,13.55
2023-05-14T19:04:09.807Z,13.55
2023-05-14T19:06:55.143Z,13.52
2023-05-14T19:09:40.225Z,13.53
2023-05-14T19:12:25.638Z,13.46
2023-05-14T19:15:10.498Z,13.42
2023-05-14T19:17:56.954Z,13.38
2023-05-14T19:20:43.479Z,13.32
2023-05-14T19:23:28.743Z,13.26
2023-05-14T19:26:17.317Z,13.34
2023-05-14T19:29:02.690Z,13.39
2023-05-14T19:31:49.614Z,13.37
2023-05-14T19:34:35.010Z,13.36
2023-05-14T19:37:20.025Z,13.34
2023-05-14T19:40:04.805Z,13.19
2023-05-14T19:42:51.314Z,13.16
2023-05-14T19:45:36.356Z,12.93
2023-05-14T19:48:21.971Z,12.94
2023-05-14T19:51:07.334Z,12.98
2023-05-14T19:53:52.842Z,12.98
2023-05-14T19:56:38.310Z,12.93
2023-05-14T19:59:23.574Z,13.00
2023-05-14T20:02:08.402Z,13.00
2023-05-14T20:04:53.821Z,12.95
2023-05-14T20:07:40.394Z,12.94
2023-05-14T20:10:25.877Z,12.94
2023-05-14T20:13:12.072Z,12.97
2023-05-14T20:15:57.258Z,12.92
2023-05-14T20:18:42.204Z,12.88
2023-05-14T20:21:27.299Z,12.83
2023-05-14T20:24:14.114Z,12.78
2023-05-14T20:27:00.154Z,12.67
2023-05-14T20:29:45.810Z,12.68
2023-05-14T20:32:30.617Z,12.73
2023-05-14T20:35:15.664Z,12.72
2023-05-14T20:38:00.572Z,12.72
2023-05-14T20:40:45.527Z,12.69
2023-05-14T20:43:30.512Z,12.69
2023-05-14T20:46:15.377Z,12.65
2023-05-14T20:49:00.366Z,12.64
2023-05-14T20:51:45.123Z,12.61
2023-05-14T20:54:30.106Z,12.53
2023-05-14T20:57:14.943Z,12.36
2023-05-14T20:59:59.940Z,12.27
2023-05-14T21:02:44.983Z,12.31
2023-05-14T21:05:29.979Z,12.29
2023-05-14T21:08:14.936Z,12.30
2023-05-14T21:10:59.851Z,12.28
2023-05-14T21:13:44.885Z,12.23
2023-05-14T21:16:29.919Z,12.19
2023-05-14T21:19:15.979Z,12.17
2023-05-14T21:22:00.821Z,12.07
2023-05-14T21:24:45.583Z,12.04
2023-05-14T21:27:30.499Z,11.95
2023-05-14T21:30:15.403Z,11.90
2023-05-14T21:33:00.619Z,11.86
2023-05-14T21:35:45.587Z,11.73
2023-05-14T21:38:30.620Z,11.70
2023-05-14T21:41:15.623Z,11.64
2023-05-14T21:44:00.577Z,11.59
2023-05-14T21:46:45.531Z,11.58
2023-05-14T21:49:30.500Z,11.56
2023-05-14T21:52:15.601Z,11.52
2023-05-14T21:55:00.458Z,11.43
2023-05-14T21:57:45.683Z,11.35
2023-05-14T22:00:30.608Z,11.25
2023-05-14T22:03:15.697Z,11.20
2023-05-14T22:06:00.468Z,11.15
2023-05-14T22:08:45.563Z,11.13
2023-05-14T22:11:30.379Z,11.15
2023-05-14T22:14:15.410Z,11.12
2023-05-14T22:17:00.487Z,11.12
2023-05-14T22:19:45.494Z,11.16
2023-05-14T22:22:30.508Z,11.18
2023-05-14T22:25:15.324Z,11.15
2023-05-14T22:28:00.430Z,11.15
2023-05-14T22:30:45.587Z,11.13
2023-05-14T22:33:30.592Z,11.24
2023-05-14T22:36:15.736Z,11.16
2023-05-14T22:39:00.580Z,11.10
2023-05-14T22:41:45.548Z,10.92
2023-05-14T22:44:30.417Z,10.85
2023-05-14T22:47:15.409Z,10.89
2023-05-14T22:50:00.292Z,10.80
2023-05-14T22:52:45.414Z,10.90
2023-05-14T22:55:30.399Z,10.44
2023-05-14T22:58:15.515Z,10.36
2023-05-14T23:01:00.671Z,10.45
2023-05-14T23:03:45.671Z,10.49
2023-05-14T23:06:30.792Z,10.63
2023-05-14T23:09:15.716Z,10.77
2023-05-14T23:12:00.751Z,10.77
2023-05-14T23:14:45.675Z,10.75
2023-05-14T23:17:30.780Z,10.60
2023-05-14T23:20:15.750Z,10.66
2023-05-14T23:23:00.689Z,10.72
2023-05-14T23:25:45.659Z,10.76
2023-05-14T23:28:30.542Z,10.82
2023-05-14T23:31:15.531Z,10.86
2023-05-14T23:34:00.416Z,10.87
2023-05-14T23:36:45.077Z,10.91
2023-05-14T23:39:30.091Z,10.89
2023-05-14T23:42:14.983Z,10.87
2023-05-14T23:44:59.885Z,10.92
2023-05-14T23:47:44.844Z,10.89
2023-05-14T23:50:29.783Z,10.88
2023-05-14T23:53:14.649Z,10.85
2023-05-14T23:55:59.496Z,10.86
2023-05-14T23:58:44.305Z,10.81
